sensor_id;sensor_type;location;lat;lon;timestamp;P1;durP1;ratioP1;P2;durP2;ratioP2
4122;SDS011;2075;51.062;6.920;2022-11-13T00:00:40;18.93;;;11.57;;
4122;SDS011;2075;51.062;6.920;2022-11-13T00:04:06;16.00;;;11.37;;
4122;SDS011;2075;51.062;6.920;2022-11-13T00:07:30;20.03;;;12.20;;
4122;SDS011;2075;51.062;6.920;2022-11-13T00:10:40;17.97;;;10.80;;
4122;SDS011;2075;51.062;6.920;2022-11-13T00:13:45;18.37;;;11.10;;
4122;SDS011;2075;51.062;6.920;2022-11-13T00:16:57;20.30;;;12.20;;
4122;SDS011;2075;51.062;6.920;2022-11-13T00:20:26;21.50;;;12.87;;
4122;SDS011;2075;51.062;6.920;2022-11-13T00:23:31;21.53;;;12.13;;
4122;SDS011;2075;51.062;6.920;2022-11-13T00:26:38;21.20;;;12.60;;
4122;SDS011;2075;51.062;6.920;2022-11-13T00:29:55;23.57;;;13.00;;
4122;SDS011;2075;51.062;6.920;2022-11-13T00:33:15;20.30;;;12.30;;
4122;SDS011;2075;51.062;6.920;2022-11-13T00:36:35;21.73;;;13.30;;
4122;SDS011;2075;51.062;6.920;2022-11-13T00:40:29;21.07;;;12.17;;
4122;SDS011;2075;51.062;6.920;2022-11-13T00:44:26;21.67;;;12.33;;
4122;SDS011;2075;51.062;6.920;2022-11-13T00:47:35;21.20;;;12.30;;
4122;SDS011;2075;51.062;6.920;2022-11-13T00:51:01;19.70;;;12.17;;
4122;SDS011;2075;51.062;6.920;2022-11-13T00:54:23;22.30;;;12.17;;
4122;SDS011;2075;51.062;6.920;2022-11-13T00:57:46;16.70;;;11.00;;
4122;SDS011;2075;51.062;6.920;2022-11-13T01:01:08;17.93;;;10.63;;
4122;SDS011;2075;51.062;6.920;2022-11-13T01:04:37;19.70;;;9.67;;
4122;SDS011;2075;51.062;6.920;2022-11-13T01:07:48;19.63;;;10.30;;
4122;SDS011;2075;51.062;6.920;2022-11-13T01:10:56;14.13;;;10.00;;
4122;SDS011;2075;51.062;6.920;2022-11-13T01:14:42;12.83;;;9.47;;
4122;SDS011;2075;51.062;6.920;2022-11-13T01:25:19;15.97;;;9.33;;
4122;SDS011;2075;51.062;6.920;2022-11-13T01:28:26;12.13;;;8.93;;
4122;SDS011;2075;51.062;6.920;2022-11-13T01:31:30;14.07;;;9.47;;
4122;SDS011;2075;51.062;6.920;2022-11-13T01:34:37;12.90;;;9.57;;
4122;SDS011;2075;51.062;6.920;2022-11-13T01:37:42;14.90;;;9.03;;
4122;SDS011;2075;51.062;6.920;2022-11-13T01:40:47;13.73;;;9.10;;
4122;SDS011;2075;51.062;6.920;2022-11-13T01:43:56;12.87;;;9.10;;
4122;SDS011;2075;51.062;6.920;2022-11-13T01:47:01;15.27;;;10.20;;
4122;SDS011;2075;51.062;6.920;2022-11-13T01:50:08;17.03;;;10.23;;
4122;SDS011;2075;51.062;6.920;2022-11-13T01:53:17;16.30;;;9.20;;
4122;SDS011;2075;51.062;6.920;2022-11-13T01:56:23;20.20;;;10.37;;
4122;SDS011;2075;51.062;6.920;2022-11-13T01:59:31;12.03;;;9.00;;
4122;SDS011;2075;51.062;6.920;2022-11-13T02:02:39;17.70;;;9.97;;
4122;SDS011;2075;51.062;6.920;2022-11-13T02:05:43;16.60;;;9.47;;
4122;SDS011;2075;51.062;6.920;2022-11-13T02:12:26;14.17;;;10.40;;
4122;SDS011;2075;51.062;6.920;2022-11-13T02:15:46;14.60;;;10.23;;
4122;SDS011;2075;51.062;6.920;2022-11-13T02:19:02;20.90;;;10.30;;
4122;SDS011;2075;51.062;6.920;2022-11-13T02:22:16;13.70;;;10.20;;
4122;SDS011;2075;51.062;6.920;2022-11-13T02:29:27;17.10;;;10.90;;
4122;SDS011;2075;51.062;6.920;2022-11-13T02:36:20;15.13;;;10.87;;
4122;SDS011;2075;51.062;6.920;2022-11-13T02:39:34;16.00;;;10.00;;
4122;SDS011;2075;51.062;6.920;2022-11-13T02:42:46;16.13;;;10.80;;
4122;SDS011;2075;51.062;6.920;2022-11-13T02:48:26;17.67;;;10.87;;
4122;SDS011;2075;51.062;6.920;2022-11-13T02:51:44;22.10;;;12.50;;
4122;SDS011;2075;51.062;6.920;2022-11-13T03:10:48;20.70;;;11.90;;
4122;SDS011;2075;51.062;6.920;2022-11-13T03:18:18;16.83;;;11.10;;
4122;SDS011;2075;51.062;6.920;2022-11-13T03:22:06;20.83;;;11.37;;
4122;SDS011;2075;51.062;6.920;2022-11-13T03:25:29;20.20;;;12.00;;
4122;SDS011;2075;51.062;6.920;2022-11-13T03:29:13;17.47;;;11.37;;
4122;SDS011;2075;51.062;6.920;2022-11-13T03:36:06;17.20;;;10.90;;
4122;SDS011;2075;51.062;6.920;2022-11-13T03:39:17;17.13;;;10.57;;
4122;SDS011;2075;51.062;6.920;2022-11-13T03:42:25;19.43;;;11.27;;
4122;SDS011;2075;51.062;6.920;2022-11-13T03:45:33;13.60;;;9.63;;
4122;SDS011;2075;51.062;6.920;2022-11-13T03:48:40;18.27;;;11.73;;
4122;SDS011;2075;51.062;6.920;2022-11-13T03:51:44;17.83;;;11.17;;
4122;SDS011;2075;51.062;6.920;2022-11-13T03:54:48;16.83;;;10.17;;
4122;SDS011;2075;51.062;6.920;2022-11-13T03:57:54;24.53;;;12.50;;
4122;SDS011;2075;51.062;6.920;2022-11-13T04:00:58;18.00;;;10.83;;
4122;SDS011;2075;51.062;6.920;2022-11-13T04:04:02;17.10;;;9.67;;
4122;SDS011;2075;51.062;6.920;2022-11-13T04:07:06;15.50;;;10.50;;
4122;SDS011;2075;51.062;6.920;2022-11-13T04:10:10;14.00;;;9.83;;
4122;SDS011;2075;51.062;6.920;2022-11-13T04:13:16;16.73;;;9.60;;
4122;SDS011;2075;51.062;6.920;2022-11-13T04:16:20;16.27;;;10.20;;
4122;SDS011;2075;51.062;6.920;2022-11-13T04:19:24;14.47;;;10.13;;
4122;SDS011;2075;51.062;6.920;2022-11-13T04:22:29;18.33;;;10.00;;
4122;SDS011;2075;51.062;6.920;2022-11-13T04:25:33;17.67;;;10.63;;
4122;SDS011;2075;51.062;6.920;2022-11-13T04:28:40;14.10;;;9.50;;
4122;SDS011;2075;51.062;6.920;2022-11-13T04:31:45;16.90;;;10.50;;
4122;SDS011;2075;51.062;6.920;2022-11-13T04:34:49;16.10;;;10.40;;
4122;SDS011;2075;51.062;6.920;2022-11-13T04:37:53;17.90;;;11.07;;
4122;SDS011;2075;51.062;6.920;2022-11-13T04:40:57;17.03;;;11.00;;
4122;SDS011;2075;51.062;6.920;2022-11-13T04:44:17;20.27;;;11.30;;
4122;SDS011;2075;51.062;6.920;2022-11-13T04:47:21;16.10;;;9.90;;
4122;SDS011;2075;51.062;6.920;2022-11-13T04:50:25;16.37;;;10.60;;
4122;SDS011;2075;51.062;6.920;2022-11-13T04:53:29;16.80;;;11.40;;
4122;SDS011;2075;51.062;6.920;2022-11-13T04:56:36;19.73;;;10.57;;
4122;SDS011;2075;51.062;6.920;2022-11-13T04:59:41;14.07;;;9.57;;
4122;SDS011;2075;51.062;6.920;2022-11-13T05:02:46;14.23;;;9.63;;
4122;SDS011;2075;51.062;6.920;2022-11-13T05:05:50;14.27;;;10.03;;
4122;SDS011;2075;51.062;6.920;2022-11-13T05:08:54;16.67;;;10.67;;
4122;SDS011;2075;51.062;6.920;2022-11-13T05:11:58;15.53;;;9.60;;
4122;SDS011;2075;51.062;6.920;2022-11-13T05:15:05;16.13;;;9.87;;
4122;SDS011;2075;51.062;6.920;2022-11-13T05:18:10;17.07;;;10.17;;
4122;SDS011;2075;51.062;6.920;2022-11-13T05:21:15;13.73;;;9.83;;
4122;SDS011;2075;51.062;6.920;2022-11-13T05:24:19;17.80;;;10.23;;
4122;SDS011;2075;51.062;6.920;2022-11-13T05:27:23;12.20;;;9.00;;
4122;SDS011;2075;51.062;6.920;2022-11-13T05:30:29;17.10;;;10.20;;
4122;SDS011;2075;51.062;6.920;2022-11-13T05:33:33;16.60;;;10.63;;
4122;SDS011;2075;51.062;6.920;2022-11-13T05:36:38;16.20;;;9.83;;
4122;SDS011;2075;51.062;6.920;2022-11-13T05:39:42;15.90;;;10.00;;
4122;SDS011;2075;51.062;6.920;2022-11-13T05:42:47;19.30;;;10.57;;
4122;SDS011;2075;51.062;6.920;2022-11-13T05:45:57;17.20;;;9.93;;
4122;SDS011;2075;51.062;6.920;2022-11-13T05:49:02;16.60;;;9.90;;
4122;SDS011;2075;51.062;6.920;2022-11-13T05:52:06;17.00;;;10.00;;
4122;SDS011;2075;51.062;6.920;2022-11-13T05:55:10;18.83;;;10.00;;
4122;SDS011;2075;51.062;6.920;2022-11-13T05:58:14;13.10;;;9.50;;
4122;SDS011;2075;51.062;6.920;2022-11-13T06:01:21;14.40;;;8.97;;
4122;SDS011;2075;51.062;6.920;2022-11-13T06:04:27;12.73;;;8.70;;
4122;SDS011;2075;51.062;6.920;2022-11-13T06:07:31;17.07;;;8.93;;
4122;SDS011;2075;51.062;6.920;2022-11-13T06:10:35;14.83;;;9.63;;
4122;SDS011;2075;51.062;6.920;2022-11-13T06:13:39;14.77;;;9.30;;
4122;SDS011;2075;51.062;6.920;2022-11-13T06:16:45;18.30;;;9.23;;
4122;SDS011;2075;51.062;6.920;2022-11-13T06:19:49;14.70;;;8.77;;
4122;SDS011;2075;51.062;6.920;2022-11-13T06:22:54;13.33;;;8.60;;
4122;SDS011;2075;51.062;6.920;2022-11-13T06:26:01;15.60;;;8.53;;
4122;SDS011;2075;51.062;6.920;2022-11-13T06:29:06;16.83;;;8.27;;
4122;SDS011;2075;51.062;6.920;2022-11-13T06:32:13;11.40;;;8.23;;
4122;SDS011;2075;51.062;6.920;2022-11-13T06:35:18;11.10;;;7.73;;
4122;SDS011;2075;51.062;6.920;2022-11-13T06:38:22;13.73;;;7.43;;
4122;SDS011;2075;51.062;6.920;2022-11-13T06:41:26;16.20;;;9.20;;
4122;SDS011;2075;51.062;6.920;2022-11-13T06:44:32;11.43;;;7.43;;
4122;SDS011;2075;51.062;6.920;2022-11-13T06:47:38;10.10;;;7.50;;
4122;SDS011;2075;51.062;6.920;2022-11-13T06:50:42;13.73;;;8.10;;
4122;SDS011;2075;51.062;6.920;2022-11-13T06:53:46;13.23;;;8.17;;
4122;SDS011;2075;51.062;6.920;2022-11-13T06:56:51;21.13;;;12.20;;
4122;SDS011;2075;51.062;6.920;2022-11-13T06:59:55;17.10;;;9.10;;
4122;SDS011;2075;51.062;6.920;2022-11-13T07:03:01;12.50;;;8.13;;
4122;SDS011;2075;51.062;6.920;2022-11-13T07:06:06;14.30;;;8.93;;
4122;SDS011;2075;51.062;6.920;2022-11-13T07:09:11;14.40;;;9.00;;
4122;SDS011;2075;51.062;6.920;2022-11-13T07:12:15;17.70;;;10.97;;
4122;SDS011;2075;51.062;6.920;2022-11-13T07:15:20;14.63;;;8.27;;
4122;SDS011;2075;51.062;6.920;2022-11-13T07:18:25;10.70;;;8.00;;
4122;SDS011;2075;51.062;6.920;2022-11-13T07:21:30;12.67;;;8.97;;
4122;SDS011;2075;51.062;6.920;2022-11-13T07:24:34;11.70;;;8.60;;
4122;SDS011;2075;51.062;6.920;2022-11-13T07:27:43;13.33;;;8.13;;
4122;SDS011;2075;51.062;6.920;2022-11-13T07:30:47;14.40;;;9.07;;
4122;SDS011;2075;51.062;6.920;2022-11-13T07:33:53;13.83;;;9.30;;
4122;SDS011;2075;51.062;6.920;2022-11-13T07:36:57;14.37;;;8.90;;
4122;SDS011;2075;51.062;6.920;2022-11-13T07:40:02;12.20;;;8.80;;
4122;SDS011;2075;51.062;6.920;2022-11-13T07:43:07;15.33;;;9.17;;
4122;SDS011;2075;51.062;6.920;2022-11-13T07:46:19;12.47;;;9.27;;
4122;SDS011;2075;51.062;6.920;2022-11-13T07:49:25;12.87;;;8.37;;
4122;SDS011;2075;51.062;6.920;2022-11-13T07:52:30;17.83;;;8.13;;
4122;SDS011;2075;51.062;6.920;2022-11-13T07:55:40;10.60;;;7.33;;
4122;SDS011;2075;51.062;6.920;2022-11-13T07:58:44;10.77;;;7.20;;
4122;SDS011;2075;51.062;6.920;2022-11-13T08:01:48;21.23;;;8.40;;
4122;SDS011;2075;51.062;6.920;2022-11-13T08:04:54;11.43;;;8.27;;
4122;SDS011;2075;51.062;6.920;2022-11-13T08:07:58;19.73;;;7.70;;
4122;SDS011;2075;51.062;6.920;2022-11-13T08:11:03;13.50;;;7.10;;
4122;SDS011;2075;51.062;6.920;2022-11-13T08:14:09;13.13;;;7.03;;
4122;SDS011;2075;51.062;6.920;2022-11-13T08:17:13;9.50;;;6.83;;
4122;SDS011;2075;51.062;6.920;2022-11-13T08:20:18;8.07;;;6.73;;
4122;SDS011;2075;51.062;6.920;2022-11-13T08:23:22;11.30;;;7.00;;
4122;SDS011;2075;51.062;6.920;2022-11-13T08:26:27;9.73;;;6.50;;
4122;SDS011;2075;51.062;6.920;2022-11-13T08:29:31;10.87;;;7.17;;
4122;SDS011;2075;51.062;6.920;2022-11-13T08:32:35;10.80;;;6.00;;
4122;SDS011;2075;51.062;6.920;2022-11-13T08:35:41;9.77;;;5.93;;
4122;SDS011;2075;51.062;6.920;2022-11-13T08:38:46;15.00;;;6.87;;
4122;SDS011;2075;51.062;6.920;2022-11-13T08:41:50;10.47;;;6.80;;
4122;SDS011;2075;51.062;6.920;2022-11-13T08:48:21;7.73;;;6.00;;
4122;SDS011;2075;51.062;6.920;2022-11-13T08:51:28;10.43;;;6.80;;
4122;SDS011;2075;51.062;6.920;2022-11-13T08:54:32;10.27;;;6.30;;
4122;SDS011;2075;51.062;6.920;2022-11-13T08:57:36;8.03;;;6.20;;
4122;SDS011;2075;51.062;6.920;2022-11-13T09:00:42;8.40;;;6.00;;
4122;SDS011;2075;51.062;6.920;2022-11-13T09:03:50;9.73;;;6.30;;
4122;SDS011;2075;51.062;6.920;2022-11-13T09:06:59;6.50;;;5.40;;
4122;SDS011;2075;51.062;6.920;2022-11-13T09:10:03;6.27;;;5.47;;
4122;SDS011;2075;51.062;6.920;2022-11-13T09:13:09;11.20;;;5.83;;
4122;SDS011;2075;51.062;6.920;2022-11-13T09:16:13;7.57;;;4.73;;
4122;SDS011;2075;51.062;6.920;2022-11-13T09:19:20;7.07;;;5.57;;
4122;SDS011;2075;51.062;6.920;2022-11-13T09:22:27;8.90;;;5.47;;
4122;SDS011;2075;51.062;6.920;2022-11-13T09:25:35;8.50;;;5.60;;
4122;SDS011;2075;51.062;6.920;2022-11-13T09:28:39;6.27;;;5.20;;
4122;SDS011;2075;51.062;6.920;2022-11-13T09:31:44;8.50;;;5.60;;
4122;SDS011;2075;51.062;6.920;2022-11-13T09:34:48;6.40;;;5.10;;
4122;SDS011;2075;51.062;6.920;2022-11-13T09:37:54;7.77;;;5.00;;
4122;SDS011;2075;51.062;6.920;2022-11-13T09:40:58;7.20;;;5.10;;
4122;SDS011;2075;51.062;6.920;2022-11-13T09:44:13;7.10;;;5.03;;
4122;SDS011;2075;51.062;6.920;2022-11-13T09:47:31;8.73;;;6.00;;
4122;SDS011;2075;51.062;6.920;2022-11-13T09:50:46;7.47;;;5.87;;
4122;SDS011;2075;51.062;6.920;2022-11-13T09:54:01;5.20;;;4.70;;
4122;SDS011;2075;51.062;6.920;2022-11-13T09:57:10;10.33;;;5.60;;
4122;SDS011;2075;51.062;6.920;2022-11-13T10:00:27;8.50;;;4.93;;
4122;SDS011;2075;51.062;6.920;2022-11-13T10:03:39;9.80;;;6.93;;
4122;SDS011;2075;51.062;6.920;2022-11-13T10:06:53;15.73;;;5.40;;
4122;SDS011;2075;51.062;6.920;2022-11-13T10:10:16;25.20;;;18.17;;
4122;SDS011;2075;51.062;6.920;2022-11-13T10:13:36;18.33;;;13.80;;
4122;SDS011;2075;51.062;6.920;2022-11-13T10:16:46;3.43;;;3.13;;
4122;SDS011;2075;51.062;6.920;2022-11-13T10:19:55;4.07;;;3.50;;
4122;SDS011;2075;51.062;6.920;2022-11-13T10:23:05;5.03;;;4.07;;
4122;SDS011;2075;51.062;6.920;2022-11-13T10:26:16;5.80;;;3.70;;
4122;SDS011;2075;51.062;6.920;2022-11-13T10:29:25;5.43;;;4.23;;
4122;SDS011;2075;51.062;6.920;2022-11-13T10:32:34;5.93;;;4.00;;
4122;SDS011;2075;51.062;6.920;2022-11-13T10:35:43;5.47;;;3.90;;
4122;SDS011;2075;51.062;6.920;2022-11-13T10:38:56;4.00;;;3.60;;
4122;SDS011;2075;51.062;6.920;2022-11-13T10:42:17;5.20;;;3.97;;
4122;SDS011;2075;51.062;6.920;2022-11-13T10:45:26;5.17;;;4.10;;
4122;SDS011;2075;51.062;6.920;2022-11-13T10:48:31;3.97;;;3.57;;
4122;SDS011;2075;51.062;6.920;2022-11-13T10:51:37;8.73;;;4.03;;
4122;SDS011;2075;51.062;6.920;2022-11-13T10:54:42;4.50;;;4.10;;
4122;SDS011;2075;51.062;6.920;2022-11-13T10:57:54;6.00;;;4.20;;
4122;SDS011;2075;51.062;6.920;2022-11-13T11:01:00;4.97;;;4.43;;
4122;SDS011;2075;51.062;6.920;2022-11-13T11:04:04;4.93;;;3.70;;
4122;SDS011;2075;51.062;6.920;2022-11-13T11:07:11;4.13;;;3.73;;
4122;SDS011;2075;51.062;6.920;2022-11-13T11:10:19;6.93;;;4.07;;
4122;SDS011;2075;51.062;6.920;2022-11-13T11:13:27;4.47;;;4.07;;
4122;SDS011;2075;51.062;6.920;2022-11-13T11:16:31;3.80;;;3.40;;
4122;SDS011;2075;51.062;6.920;2022-11-13T11:19:36;5.20;;;4.03;;
4122;SDS011;2075;51.062;6.920;2022-11-13T11:22:42;4.80;;;3.80;;
4122;SDS011;2075;51.062;6.920;2022-11-13T11:25:50;4.07;;;3.60;;
4122;SDS011;2075;51.062;6.920;2022-11-13T11:29:02;4.80;;;4.07;;
4122;SDS011;2075;51.062;6.920;2022-11-13T11:32:13;4.60;;;4.17;;
4122;SDS011;2075;51.062;6.920;2022-11-13T11:35:22;5.47;;;3.72;;
4122;SDS011;2075;51.062;6.920;2022-11-13T11:38:32;5.37;;;3.60;;
4122;SDS011;2075;51.062;6.920;2022-11-13T11:41:42;4.07;;;3.77;;
4122;SDS011;2075;51.062;6.920;2022-11-13T11:44:54;3.90;;;3.50;;
4122;SDS011;2075;51.062;6.920;2022-11-13T11:48:09;5.43;;;3.85;;
4122;SDS011;2075;51.062;6.920;2022-11-13T11:51:17;3.50;;;2.97;;
4122;SDS011;2075;51.062;6.920;2022-11-13T11:54:29;3.50;;;3.20;;
4122;SDS011;2075;51.062;6.920;2022-11-13T11:57:46;5.20;;;3.60;;
4122;SDS011;2075;51.062;6.920;2022-11-13T12:01:00;5.90;;;3.53;;
4122;SDS011;2075;51.062;6.920;2022-11-13T12:04:14;4.43;;;3.33;;
4122;SDS011;2075;51.062;6.920;2022-11-13T12:07:32;3.03;;;2.83;;
4122;SDS011;2075;51.062;6.920;2022-11-13T12:10:43;3.33;;;2.93;;
4122;SDS011;2075;51.062;6.920;2022-11-13T12:13:54;3.13;;;2.83;;
4122;SDS011;2075;51.062;6.920;2022-11-13T12:17:15;2.67;;;2.47;;
4122;SDS011;2075;51.062;6.920;2022-11-13T12:20:34;3.47;;;3.00;;
4122;SDS011;2075;51.062;6.920;2022-11-13T12:27:32;2.47;;;2.37;;
4122;SDS011;2075;51.062;6.920;2022-11-13T12:30:43;5.83;;;5.27;;
4122;SDS011;2075;51.062;6.920;2022-11-13T12:33:58;2.70;;;2.50;;
4122;SDS011;2075;51.062;6.920;2022-11-13T12:37:09;2.83;;;2.60;;
4122;SDS011;2075;51.062;6.920;2022-11-13T12:40:18;2.87;;;2.50;;
4122;SDS011;2075;51.062;6.920;2022-11-13T12:43:33;2.77;;;2.57;;
4122;SDS011;2075;51.062;6.920;2022-11-13T12:46:50;2.93;;;2.47;;
4122;SDS011;2075;51.062;6.920;2022-11-13T12:50:02;2.67;;;2.43;;
4122;SDS011;2075;51.062;6.920;2022-11-13T12:53:09;3.13;;;2.83;;
4122;SDS011;2075;51.062;6.920;2022-11-13T12:56:16;3.03;;;2.70;;
4122;SDS011;2075;51.062;6.920;2022-11-13T12:59:38;3.00;;;2.80;;
4122;SDS011;2075;51.062;6.920;2022-11-13T13:02:53;3.40;;;3.07;;
4122;SDS011;2075;51.062;6.920;2022-11-13T13:10:06;3.20;;;2.90;;
4122;SDS011;2075;51.062;6.920;2022-11-13T13:13:21;3.80;;;3.43;;
4122;SDS011;2075;51.062;6.920;2022-11-13T13:16:42;4.20;;;3.17;;
4122;SDS011;2075;51.062;6.920;2022-11-13T13:19:55;4.80;;;4.03;;
4122;SDS011;2075;51.062;6.920;2022-11-13T13:23:03;2.60;;;2.40;;
4122;SDS011;2075;51.062;6.920;2022-11-13T13:26:13;2.83;;;2.63;;
4122;SDS011;2075;51.062;6.920;2022-11-13T13:29:22;4.53;;;2.83;;
4122;SDS011;2075;51.062;6.920;2022-11-13T13:32:31;3.13;;;2.60;;
4122;SDS011;2075;51.062;6.920;2022-11-13T13:35:48;4.07;;;3.10;;
4122;SDS011;2075;51.062;6.920;2022-11-13T13:39:01;2.87;;;2.67;;
4122;SDS011;2075;51.062;6.920;2022-11-13T13:42:24;4.23;;;3.43;;
4122;SDS011;2075;51.062;6.920;2022-11-13T13:45:49;3.40;;;3.20;;
4122;SDS011;2075;51.062;6.920;2022-11-13T13:49:04;4.37;;;3.97;;
4122;SDS011;2075;51.062;6.920;2022-11-13T13:52:14;5.00;;;3.17;;
4122;SDS011;2075;51.062;6.920;2022-11-13T13:55:21;3.87;;;3.30;;
4122;SDS011;2075;51.062;6.920;2022-11-13T13:58:31;4.20;;;3.30;;
4122;SDS011;2075;51.062;6.920;2022-11-13T14:01:37;4.00;;;3.27;;
4122;SDS011;2075;51.062;6.920;2022-11-13T14:04:42;3.00;;;2.70;;
4122;SDS011;2075;51.062;6.920;2022-11-13T14:07:48;3.10;;;2.90;;
4122;SDS011;2075;51.062;6.920;2022-11-13T14:10:54;3.87;;;2.93;;
4122;SDS011;2075;51.062;6.920;2022-11-13T14:14:05;3.43;;;3.13;;
4122;SDS011;2075;51.062;6.920;2022-11-13T14:17:10;3.63;;;2.90;;
4122;SDS011;2075;51.062;6.920;2022-11-13T14:20:15;2.70;;;2.50;;
4122;SDS011;2075;51.062;6.920;2022-11-13T14:23:21;4.13;;;3.00;;
4122;SDS011;2075;51.062;6.920;2022-11-13T14:26:31;5.33;;;2.80;;
4122;SDS011;2075;51.062;6.920;2022-11-13T14:29:36;3.20;;;2.90;;
4122;SDS011;2075;51.062;6.920;2022-11-13T14:32:50;3.13;;;2.77;;
4122;SDS011;2075;51.062;6.920;2022-11-13T14:35:55;3.63;;;3.10;;
4122;SDS011;2075;51.062;6.920;2022-11-13T14:39:05;2.93;;;2.73;;
4122;SDS011;2075;51.062;6.920;2022-11-13T14:42:19;3.33;;;3.03;;
4122;SDS011;2075;51.062;6.920;2022-11-13T14:45:38;4.40;;;3.10;;
4122;SDS011;2075;51.062;6.920;2022-11-13T14:48:50;2.40;;;2.20;;
4122;SDS011;2075;51.062;6.920;2022-11-13T14:51:56;3.50;;;3.20;;
4122;SDS011;2075;51.062;6.920;2022-11-13T14:55:02;3.67;;;3.37;;
4122;SDS011;2075;51.062;6.920;2022-11-13T14:58:12;4.50;;;3.87;;
4122;SDS011;2075;51.062;6.920;2022-11-13T15:01:17;13.23;;;5.30;;
4122;SDS011;2075;51.062;6.920;2022-11-13T15:04:23;7.80;;;3.97;;
4122;SDS011;2075;51.062;6.920;2022-11-13T15:07:30;5.10;;;4.00;;
4122;SDS011;2075;51.062;6.920;2022-11-13T15:10:36;6.17;;;3.60;;
4122;SDS011;2075;51.062;6.920;2022-11-13T15:13:42;3.53;;;3.23;;
4122;SDS011;2075;51.062;6.920;2022-11-13T15:16:47;3.67;;;3.03;;
4122;SDS011;2075;51.062;6.920;2022-11-13T15:19:54;3.70;;;3.40;;
4122;SDS011;2075;51.062;6.920;2022-11-13T15:22:58;4.03;;;3.40;;
4122;SDS011;2075;51.062;6.920;2022-11-13T15:26:03;5.90;;;3.80;;
4122;SDS011;2075;51.062;6.920;2022-11-13T15:29:08;8.40;;;4.00;;
4122;SDS011;2075;51.062;6.920;2022-11-13T15:32:13;5.80;;;4.47;;
4122;SDS011;2075;51.062;6.920;2022-11-13T15:35:18;7.67;;;4.27;;
4122;SDS011;2075;51.062;6.920;2022-11-13T15:38:23;5.97;;;3.90;;
4122;SDS011;2075;51.062;6.920;2022-11-13T15:41:28;7.80;;;4.93;;
4122;SDS011;2075;51.062;6.920;2022-11-13T15:44:35;5.77;;;4.57;;
4122;SDS011;2075;51.062;6.920;2022-11-13T15:47:39;6.93;;;4.47;;
4122;SDS011;2075;51.062;6.920;2022-11-13T15:50:44;7.23;;;4.43;;
4122;SDS011;2075;51.062;6.920;2022-11-13T15:53:49;7.10;;;5.00;;
4122;SDS011;2075;51.062;6.920;2022-11-13T15:56:56;6.73;;;4.37;;
4122;SDS011;2075;51.062;6.920;2022-11-13T16:00:02;10.00;;;5.27;;
4122;SDS011;2075;51.062;6.920;2022-11-13T16:03:07;6.57;;;5.03;;
4122;SDS011;2075;51.062;6.920;2022-11-13T16:06:14;10.90;;;5.27;;
4122;SDS011;2075;51.062;6.920;2022-11-13T16:09:20;7.63;;;5.20;;
4122;SDS011;2075;51.062;6.920;2022-11-13T16:12:25;6.20;;;5.03;;
4122;SDS011;2075;51.062;6.920;2022-11-13T16:15:30;8.60;;;5.47;;
4122;SDS011;2075;51.062;6.920;2022-11-13T16:18:34;9.83;;;6.67;;
4122;SDS011;2075;51.062;6.920;2022-11-13T16:21:39;12.17;;;6.53;;
4122;SDS011;2075;51.062;6.920;2022-11-13T16:24:43;12.53;;;7.90;;
4122;SDS011;2075;51.062;6.920;2022-11-13T16:27:47;13.67;;;9.37;;
4122;SDS011;2075;51.062;6.920;2022-11-13T16:30:53;12.80;;;8.93;;
4122;SDS011;2075;51.062;6.920;2022-11-13T16:33:57;10.90;;;7.73;;
4122;SDS011;2075;51.062;6.920;2022-11-13T16:37:02;12.77;;;7.93;;
4122;SDS011;2075;51.062;6.920;2022-11-13T16:40:25;8.97;;;6.33;;
4122;SDS011;2075;51.062;6.920;2022-11-13T16:43:30;10.60;;;6.40;;
4122;SDS011;2075;51.062;6.920;2022-11-13T16:46:36;10.77;;;6.50;;
4122;SDS011;2075;51.062;6.920;2022-11-13T16:49:43;12.50;;;7.33;;
4122;SDS011;2075;51.062;6.920;2022-11-13T16:52:47;11.70;;;7.20;;
4122;SDS011;2075;51.062;6.920;2022-11-13T16:55:51;12.27;;;7.93;;
4122;SDS011;2075;51.062;6.920;2022-11-13T16:58:56;10.90;;;7.63;;
4122;SDS011;2075;51.062;6.920;2022-11-13T17:02:03;10.70;;;6.80;;
4122;SDS011;2075;51.062;6.920;2022-11-13T17:05:15;10.23;;;7.50;;
4122;SDS011;2075;51.062;6.920;2022-11-13T17:08:21;20.57;;;8.70;;
4122;SDS011;2075;51.062;6.920;2022-11-13T17:11:30;16.00;;;9.70;;
4122;SDS011;2075;51.062;6.920;2022-11-13T17:14:35;16.20;;;10.37;;
4122;SDS011;2075;51.062;6.920;2022-11-13T17:17:41;19.33;;;11.93;;
4122;SDS011;2075;51.062;6.920;2022-11-13T17:20:48;13.73;;;8.43;;
4122;SDS011;2075;51.062;6.920;2022-11-13T17:23:53;12.23;;;7.93;;
4122;SDS011;2075;51.062;6.920;2022-11-13T17:26:59;12.17;;;7.53;;
4122;SDS011;2075;51.062;6.920;2022-11-13T17:30:03;11.37;;;7.17;;
4122;SDS011;2075;51.062;6.920;2022-11-13T17:33:10;15.30;;;8.27;;
4122;SDS011;2075;51.062;6.920;2022-11-13T17:36:15;8.63;;;6.20;;
4122;SDS011;2075;51.062;6.920;2022-11-13T17:39:19;11.97;;;8.00;;
4122;SDS011;2075;51.062;6.920;2022-11-13T17:42:23;11.83;;;6.97;;
4122;SDS011;2075;51.062;6.920;2022-11-13T17:45:29;8.27;;;6.33;;
4122;SDS011;2075;51.062;6.920;2022-11-13T17:48:38;16.50;;;8.10;;
4122;SDS011;2075;51.062;6.920;2022-11-13T17:51:43;11.60;;;7.80;;
4122;SDS011;2075;51.062;6.920;2022-11-13T17:54:47;9.00;;;5.90;;
4122;SDS011;2075;51.062;6.920;2022-11-13T17:57:51;15.10;;;8.93;;
4122;SDS011;2075;51.062;6.920;2022-11-13T18:01:01;10.30;;;6.70;;
4122;SDS011;2075;51.062;6.920;2022-11-13T18:04:11;14.53;;;7.70;;
4122;SDS011;2075;51.062;6.920;2022-11-13T18:07:15;9.17;;;7.00;;
4122;SDS011;2075;51.062;6.920;2022-11-13T18:10:19;13.20;;;7.30;;
4122;SDS011;2075;51.062;6.920;2022-11-13T18:13:24;12.67;;;7.60;;
4122;SDS011;2075;51.062;6.920;2022-11-13T18:16:29;14.27;;;8.10;;
4122;SDS011;2075;51.062;6.920;2022-11-13T18:19:37;12.40;;;8.73;;
4122;SDS011;2075;51.062;6.920;2022-11-13T18:22:42;19.73;;;11.23;;
4122;SDS011;2075;51.062;6.920;2022-11-13T18:25:46;20.13;;;11.73;;
4122;SDS011;2075;51.062;6.920;2022-11-13T18:28:50;23.30;;;13.83;;
4122;SDS011;2075;51.062;6.920;2022-11-13T18:31:54;27.07;;;15.63;;
4122;SDS011;2075;51.062;6.920;2022-11-13T18:35:00;22.47;;;13.80;;
4122;SDS011;2075;51.062;6.920;2022-11-13T18:38:04;24.83;;;15.60;;
4122;SDS011;2075;51.062;6.920;2022-11-13T18:41:09;20.67;;;14.07;;
4122;SDS011;2075;51.062;6.920;2022-11-13T18:44:15;24.00;;;14.83;;
4122;SDS011;2075;51.062;6.920;2022-11-13T18:47:19;27.73;;;15.03;;
4122;SDS011;2075;51.062;6.920;2022-11-13T18:50:25;20.43;;;12.97;;
4122;SDS011;2075;51.062;6.920;2022-11-13T18:53:29;23.70;;;13.23;;
4122;SDS011;2075;51.062;6.920;2022-11-13T18:56:34;22.10;;;13.80;;
4122;SDS011;2075;51.062;6.920;2022-11-13T18:59:38;25.00;;;13.37;;
4122;SDS011;2075;51.062;6.920;2022-11-13T19:02:42;22.67;;;13.20;;
4122;SDS011;2075;51.062;6.920;2022-11-13T19:05:48;27.23;;;13.57;;
4122;SDS011;2075;51.062;6.920;2022-11-13T19:08:53;21.37;;;12.77;;
4122;SDS011;2075;51.062;6.920;2022-11-13T19:11:58;19.30;;;12.90;;
4122;SDS011;2075;51.062;6.920;2022-11-13T19:15:03;24.60;;;14.70;;
4122;SDS011;2075;51.062;6.920;2022-11-13T19:18:09;22.50;;;12.43;;
4122;SDS011;2075;51.062;6.920;2022-11-13T19:21:15;27.00;;;12.37;;
4122;SDS011;2075;51.062;6.920;2022-11-13T19:24:20;18.27;;;12.77;;
4122;SDS011;2075;51.062;6.920;2022-11-13T19:27:25;20.43;;;13.37;;
4122;SDS011;2075;51.062;6.920;2022-11-13T19:30:29;23.00;;;12.93;;
4122;SDS011;2075;51.062;6.920;2022-11-13T19:33:34;22.73;;;12.23;;
4122;SDS011;2075;51.062;6.920;2022-11-13T19:36:39;21.33;;;12.97;;
4122;SDS011;2075;51.062;6.920;2022-11-13T19:39:46;20.93;;;12.87;;
4122;SDS011;2075;51.062;6.920;2022-11-13T19:42:50;20.70;;;12.90;;
4122;SDS011;2075;51.062;6.920;2022-11-13T19:45:55;25.67;;;14.63;;
4122;SDS011;2075;51.062;6.920;2022-11-13T19:48:59;19.67;;;11.03;;
4122;SDS011;2075;51.062;6.920;2022-11-13T19:52:05;19.50;;;12.03;;
4122;SDS011;2075;51.062;6.920;2022-11-13T19:55:09;22.00;;;12.50;;
4122;SDS011;2075;51.062;6.920;2022-11-13T19:58:13;20.77;;;10.53;;
4122;SDS011;2075;51.062;6.920;2022-11-13T20:01:18;20.23;;;10.60;;
4122;SDS011;2075;51.062;6.920;2022-11-13T20:04:24;16.23;;;10.33;;
4122;SDS011;2075;51.062;6.920;2022-11-13T20:07:30;18.07;;;11.03;;
4122;SDS011;2075;51.062;6.920;2022-11-13T20:10:33;21.40;;;11.13;;